sensor_id;sensor_type;location;lat;lon;timestamp;temperature;humidity
57218;DHT22;43078;52.972;6.482;2023-03-21T00:01:04;9.80;99.90
57218;DHT22;43078;52.972;6.482;2023-03-21T00:03:32;9.80;99.90
57218;DHT22;43078;52.972;6.482;2023-03-21T00:06:03;9.80;99.90
57218;DHT22;43078;52.972;6.482;2023-03-21T00:08:29;9.80;99.90
57218;DHT22;43078;52.972;6.482;2023-03-21T00:10:59;9.80;99.90
57218;DHT22;43078;52.972;6.482;2023-03-21T00:13:26;9.80;99.90
57218;DHT22;43078;52.972;6.482;2023-03-21T00:16:02;9.80;99.90
57218;DHT22;43078;52.972;6.482;2023-03-21T00:18:27;9.80;99.90
57218;DHT22;43078;52.972;6.482;2023-03-21T00:20:58;9.80;99.90
57218;DHT22;43078;52.972;6.482;2023-03-21T00:23:25;9.80;99.90
57218;DHT22;43078;52.972;6.482;2023-03-21T00:25:52;9.90;99.90
57218;DHT22;43078;52.972;6.482;2023-03-21T00:28:19;9.80;99.90
57218;DHT22;43078;52.972;6.482;2023-03-21T00:30:44;9.90;99.90
57218;DHT22;43078;52.972;6.482;2023-03-21T00:33:10;9.90;99.90
57218;DHT22;43078;52.972;6.482;2023-03-21T00:35:37;9.80;99.90
57218;DHT22;43078;52.972;6.482;2023-03-21T00:38:03;9.80;99.90
57218;DHT22;43078;52.972;6.482;2023-03-21T00:40:28;9.80;99.90
57218;DHT22;43078;52.972;6.482;2023-03-21T00:42:54;9.80;99.90
57218;DHT22;43078;52.972;6.482;2023-03-21T00:45:21;9.80;99.90
57218;DHT22;43078;52.972;6.482;2023-03-21T00:47:46;9.80;99.90
57218;DHT22;43078;52.972;6.482;2023-03-21T00:50:12;9.80;99.90
57218;DHT22;43078;52.972;6.482;2023-03-21T00:52:38;9.80;99.90
57218;DHT22;43078;52.972;6.482;2023-03-21T00:55:04;9.80;99.90
57218;DHT22;43078;52.972;6.482;2023-03-21T00:57:34;9.90;99.90
57218;DHT22;43078;52.972;6.482;2023-03-21T00:59:59;9.80;99.90
57218;DHT22;43078;52.972;6.482;2023-03-21T01:02:25;9.90;99.90
57218;DHT22;43078;52.972;6.482;2023-03-21T01:04:52;9.80;99.90
57218;DHT22;43078;52.972;6.482;2023-03-21T01:07:18;9.80;99.90
57218;DHT22;43078;52.972;6.482;2023-03-21T01:09:44;9.90;99.90
57218;DHT22;43078;52.972;6.482;2023-03-21T01:12:10;9.90;99.90
57218;DHT22;43078;52.972;6.482;2023-03-21T01:14:36;9.90;99.90
57218;DHT22;43078;52.972;6.482;2023-03-21T01:17:02;9.90;99.90
57218;DHT22;43078;52.972;6.482;2023-03-21T01:19:27;9.90;99.90
57218;DHT22;43078;52.972;6.482;2023-03-21T01:21:54;9.80;99.90
57218;DHT22;43078;52.972;6.482;2023-03-21T01:24:20;9.90;99.90
57218;DHT22;43078;52.972;6.482;2023-03-21T01:26:45;9.90;99.90
57218;DHT22;43078;52.972;6.482;2023-03-21T01:29:11;9.90;99.90
57218;DHT22;43078;52.972;6.482;2023-03-21T01:31:37;9.90;99.90
57218;DHT22;43078;52.972;6.482;2023-03-21T01:34:02;9.90;99.90
57218;DHT22;43078;52.972;6.482;2023-03-21T01:36:28;9.90;99.90
57218;DHT22;43078;52.972;6.482;2023-03-21T01:38:53;9.90;99.90
57218;DHT22;43078;52.972;6.482;2023-03-21T01:43:54;9.80;99.90
57218;DHT22;43078;52.972;6.482;2023-03-21T01:46:27;9.90;99.90
57218;DHT22;43078;52.972;6.482;2023-03-21T01:51:44;9.90;99.90
57218;DHT22;43078;52.972;6.482;2023-03-21T01:54:14;9.90;99.90
57218;DHT22;43078;52.972;6.482;2023-03-21T01:56:42;9.90;99.90
57218;DHT22;43078;52.972;6.482;2023-03-21T01:59:15;9.90;99.90
57218;DHT22;43078;52.972;6.482;2023-03-21T02:01:47;9.90;99.90
57218;DHT22;43078;52.972;6.482;2023-03-21T02:04:13;9.90;99.90
57218;DHT22;43078;52.972;6.482;2023-03-21T02:07:27;9.90;99.90
57218;DHT22;43078;52.972;6.482;2023-03-21T02:09:34;9.90;99.90
57218;DHT22;43078;52.972;6.482;2023-03-21T02:12:02;9.90;99.90
57218;DHT22;43078;52.972;6.482;2023-03-21T02:14:29;9.90;99.90
57218;DHT22;43078;52.972;6.482;2023-03-21T02:25:51;9.80;99.90
57218;DHT22;43078;52.972;6.482;2023-03-21T02:28:57;9.90;99.90
57218;DHT22;43078;52.972;6.482;2023-03-21T02:31:40;9.90;99.90
57218;DHT22;43078;52.972;6.482;2023-03-21T02:37:23;9.90;99.90
57218;DHT22;43078;52.972;6.482;2023-03-21T02:42:55;9.90;99.90
57218;DHT22;43078;52.972;6.482;2023-03-21T02:45:27;9.80;99.90
57218;DHT22;43078;52.972;6.482;2023-03-21T02:47:58;9.90;99.90
57218;DHT22;43078;52.972;6.482;2023-03-21T02:52:57;9.90;99.90
57218;DHT22;43078;52.972;6.482;2023-03-21T02:55:26;9.90;99.90
57218;DHT22;43078;52.972;6.482;2023-03-21T02:57:55;9.90;99.90
57218;DHT22;43078;52.972;6.482;2023-03-21T03:00:27;9.90;99.90
57218;DHT22;43078;52.972;6.482;2023-03-21T03:02:54;9.80;99.90
57218;DHT22;43078;52.972;6.482;2023-03-21T03:05:24;9.90;99.90
57218;DHT22;43078;52.972;6.482;2023-03-21T03:10:35;9.90;99.90
57218;DHT22;43078;52.972;6.482;2023-03-21T03:13:20;9.80;99.90
57218;DHT22;43078;52.972;6.482;2023-03-21T03:16:06;9.90;99.90
57218;DHT22;43078;52.972;6.482;2023-03-21T03:18:52;9.80;99.90
57218;DHT22;43078;52.972;6.482;2023-03-21T03:24:14;9.80;99.90
57218;DHT22;43078;52.972;6.482;2023-03-21T03:29:13;9.80;99.90
57218;DHT22;43078;52.972;6.482;2023-03-21T03:31:52;9.90;99.90
57218;DHT22;43078;52.972;6.482;2023-03-21T03:34:24;9.90;99.90
57218;DHT22;43078;52.972;6.482;2023-03-21T03:36:54;9.90;99.90
57218;DHT22;43078;52.972;6.482;2023-03-21T03:39:26;9.90;99.90
57218;DHT22;43078;52.972;6.482;2023-03-21T03:41:59;9.90;99.90
57218;DHT22;43078;52.972;6.482;2023-03-21T03:44:26;9.90;99.90
57218;DHT22;43078;52.972;6.482;2023-03-21T03:47:07;9.90;99.90
57218;DHT22;43078;52.972;6.482;2023-03-21T03:49:42;9.90;99.90
57218;DHT22;43078;52.972;6.482;2023-03-21T03:52:20;9.90;99.90
57218;DHT22;43078;52.972;6.482;2023-03-21T03:54:48;9.90;99.90
57218;DHT22;43078;52.972;6.482;2023-03-21T03:57:15;9.90;99.90
57218;DHT22;43078;52.972;6.482;2023-03-21T03:59:43;9.90;99.90
57218;DHT22;43078;52.972;6.482;2023-03-21T04:02:09;9.90;99.90
57218;DHT22;43078;52.972;6.482;2023-03-21T04:04:35;9.90;99.90
57218;DHT22;43078;52.972;6.482;2023-03-21T04:07:01;9.90;99.90
57218;DHT22;43078;52.972;6.482;2023-03-21T04:09:28;9.90;99.90
57218;DHT22;43078;52.972;6.482;2023-03-21T04:11:55;9.90;99.90
57218;DHT22;43078;52.972;6.482;2023-03-21T04:14:21;9.90;99.90
57218;DHT22;43078;52.972;6.482;2023-03-21T04:16:47;9.90;99.90
57218;DHT22;43078;52.972;6.482;2023-03-21T04:19:13;9.90;99.90
57218;DHT22;43078;52.972;6.482;2023-03-21T04:21:41;9.90;99.90
57218;DHT22;43078;52.972;6.482;2023-03-21T04:24:07;9.90;99.90
57218;DHT22;43078;52.972;6.482;2023-03-21T04:26:33;9.90;99.90
57218;DHT22;43078;52.972;6.482;2023-03-21T04:29:00;9.90;99.90
57218;DHT22;43078;52.972;6.482;2023-03-21T04:31:27;9.90;99.90
57218;DHT22;43078;52.972;6.482;2023-03-21T04:34:04;9.90;99.90
57218;DHT22;43078;52.972;6.482;2023-03-21T04:36:35;9.90;99.90
57218;DHT22;43078;52.972;6.482;2023-03-21T04:39:04;9.90;99.90
57218;DHT22;43078;52.972;6.482;2023-03-21T04:41:37;9.90;99.90
57218;DHT22;43078;52.972;6.482;2023-03-21T04:44:03;9.90;99.90
57218;DHT22;43078;52.972;6.482;2023-03-21T04:46:28;9.90;99.90
57218;DHT22;43078;52.972;6.482;2023-03-21T04:48:54;9.90;99.90
57218;DHT22;43078;52.972;6.482;2023-03-21T04:51:20;9.90;99.90
57218;DHT22;43078;52.972;6.482;2023-03-21T04:53:45;9.90;99.90
57218;DHT22;43078;52.972;6.482;2023-03-21T04:56:14;9.90;99.90
57218;DHT22;43078;52.972;6.482;2023-03-21T04:58:40;9.90;99.90
57218;DHT22;43078;52.972;6.482;2023-03-21T05:01:07;9.90;99.90
57218;DHT22;43078;52.972;6.482;2023-03-21T05:03:33;9.90;99.90
57218;DHT22;43078;52.972;6.482;2023-03-21T05:05:59;9.90;99.90
57218;DHT22;43078;52.972;6.482;2023-03-21T05:08:25;9.90;99.90
57218;DHT22;43078;52.972;6.482;2023-03-21T05:10:51;9.90;99.90
57218;DHT22;43078;52.972;6.482;2023-03-21T05:13:16;9.90;99.90
57218;DHT22;43078;52.972;6.482;2023-03-21T05:15:42;9.90;99.90
57218;DHT22;43078;52.972;6.482;2023-03-21T05:18:08;9.90;99.90
57218;DHT22;43078;52.972;6.482;2023-03-21T05:20:40;9.90;99.90
57218;DHT22;43078;52.972;6.482;2023-03-21T05:23:09;9.90;99.90
57218;DHT22;43078;52.972;6.482;2023-03-21T05:25:39;9.90;99.90
57218;DHT22;43078;52.972;6.482;2023-03-21T05:28:05;9.90;99.90
57218;DHT22;43078;52.972;6.482;2023-03-21T05:30:31;9.90;99.90
57218;DHT22;43078;52.972;6.482;2023-03-21T05:33:13;9.90;99.90
57218;DHT22;43078;52.972;6.482;2023-03-21T05:35:42;9.90;99.90
57218;DHT22;43078;52.972;6.482;2023-03-21T05:38:07;9.90;99.90
57218;DHT22;43078;52.972;6.482;2023-03-21T05:40:33;9.80;99.90
57218;DHT22;43078;52.972;6.482;2023-03-21T05:43:01;9.80;99.90
57218;DHT22;43078;52.972;6.482;2023-03-21T05:52:33;9.80;99.90
57218;DHT22;43078;52.972;6.482;2023-03-21T05:54:58;9.80;99.90
57218;DHT22;43078;52.972;6.482;2023-03-21T05:57:24;9.90;99.90
57218;DHT22;43078;52.972;6.482;2023-03-21T05:59:52;9.80;99.90
57218;DHT22;43078;52.972;6.482;2023-03-21T06:02:18;9.80;99.90
57218;DHT22;43078;52.972;6.482;2023-03-21T06:04:46;9.80;99.90
57218;DHT22;43078;52.972;6.482;2023-03-21T06:07:11;9.80;99.90
57218;DHT22;43078;52.972;6.482;2023-03-21T06:09:37;9.80;99.90
57218;DHT22;43078;52.972;6.482;2023-03-21T06:12:03;9.80;99.90
57218;DHT22;43078;52.972;6.482;2023-03-21T06:14:28;9.80;99.90
57218;DHT22;43078;52.972;6.482;2023-03-21T06:16:54;9.80;99.90
57218;DHT22;43078;52.972;6.482;2023-03-21T06:19:20;9.90;99.90
57218;DHT22;43078;52.972;6.482;2023-03-21T06:21:46;9.80;99.90
57218;DHT22;43078;52.972;6.482;2023-03-21T06:24:12;9.90;99.90
57218;DHT22;43078;52.972;6.482;2023-03-21T06:26:38;9.90;99.90
57218;DHT22;43078;52.972;6.482;2023-03-21T06:29:03;9.80;99.90
57218;DHT22;43078;52.972;6.482;2023-03-21T06:31:29;9.80;99.90
57218;DHT22;43078;52.972;6.482;2023-03-21T06:33:55;9.90;99.90
57218;DHT22;43078;52.972;6.482;2023-03-21T06:36:20;9.90;99.90
57218;DHT22;43078;52.972;6.482;2023-03-21T06:38:46;9.80;99.90
57218;DHT22;43078;52.972;6.482;2023-03-21T06:41:13;9.80;99.90
57218;DHT22;43078;52.972;6.482;2023-03-21T06:43:39;9.80;99.90
57218;DHT22;43078;52.972;6.482;2023-03-21T06:46:05;9.80;99.90
57218;DHT22;43078;52.972;6.482;2023-03-21T06:48:32;9.90;99.90
57218;DHT22;43078;52.972;6.482;2023-03-21T06:50:57;9.90;99.90
57218;DHT22;43078;52.972;6.482;2023-03-21T06:53:24;9.90;99.90
57218;DHT22;43078;52.972;6.482;2023-03-21T06:55:54;9.90;99.90
57218;DHT22;43078;52.972;6.482;2023-03-21T06:58:20;9.90;99.90
57218;DHT22;43078;52.972;6.482;2023-03-21T07:00:46;9.90;99.90
57218;DHT22;43078;52.972;6.482;2023-03-21T07:03:12;9.90;99.90
57218;DHT22;43078;52.972;6.482;2023-03-21T07:05:39;9.90;99.90
57218;DHT22;43078;52.972;6.482;2023-03-21T07:08:06;9.90;99.90
57218;DHT22;43078;52.972;6.482;2023-03-21T07:10:38;9.90;99.90
57218;DHT22;43078;52.972;6.482;2023-03-21T07:13:03;9.90;99.90
57218;DHT22;43078;52.972;6.482;2023-03-21T07:15:29;9.90;99.90
57218;DHT22;43078;52.972;6.482;2023-03-21T07:17:55;9.90;99.90
57218;DHT22;43078;52.972;6.482;2023-03-21T07:20:21;9.90;99.90
57218;DHT22;43078;52.972;6.482;2023-03-21T07:22:46;9.90;99.90
57218;DHT22;43078;52.972;6.482;2023-03-21T07:25:12;9.90;99.90
57218;DHT22;43078;52.972;6.482;2023-03-21T07:27:38;9.90;99.90
57218;DHT22;43078;52.972;6.482;2023-03-21T07:30:04;9.90;99.90
57218;DHT22;43078;52.972;6.482;2023-03-21T07:32:34;10.00;99.90
57218;DHT22;43078;52.972;6.482;2023-03-21T07:35:00;10.00;99.90
57218;DHT22;43078;52.972;6.482;2023-03-21T07:37:26;10.00;99.90
57218;DHT22;43078;52.972;6.482;2023-03-21T07:39:51;9.90;99.90
57218;DHT22;43078;52.972;6.482;2023-03-21T07:42:17;10.00;99.90
57218;DHT22;43078;52.972;6.482;2023-03-21T07:44:43;10.00;99.90
57218;DHT22;43078;52.972;6.482;2023-03-21T07:47:09;10.00;99.90
57218;DHT22;43078;52.972;6.482;2023-03-21T07:49:36;10.00;99.90
57218;DHT22;43078;52.972;6.482;2023-03-21T07:52:02;10.00;99.90
57218;DHT22;43078;52.972;6.482;2023-03-21T07:54:28;10.00;99.90
57218;DHT22;43078;52.972;6.482;2023-03-21T07:56:55;10.00;99.90
57218;DHT22;43078;52.972;6.482;2023-03-21T07:59:21;10.00;99.90
57218;DHT22;43078;52.972;6.482;2023-03-21T08:01:46;10.00;99.90
57218;DHT22;43078;52.972;6.482;2023-03-21T08:04:12;10.00;99.90
57218;DHT22;43078;52.972;6.482;2023-03-21T08:06:38;10.00;99.90
57218;DHT22;43078;52.972;6.482;2023-03-21T08:09:04;9.90;99.90
57218;DHT22;43078;52.972;6.482;2023-03-21T08:11:30;10.00;99.90
57218;DHT22;43078;52.972;6.482;2023-03-21T08:13:57;9.90;99.90
57218;DHT22;43078;52.972;6.482;2023-03-21T08:16:22;9.90;99.90
57218;DHT22;43078;52.972;6.482;2023-03-21T08:18:48;10.00;99.90
57218;DHT22;43078;52.972;6.482;2023-03-21T08:21:14;10.00;99.90
57218;DHT22;43078;52.972;6.482;2023-03-21T08:23:40;10.00;99.90
57218;DHT22;43078;52.972;6.482;2023-03-21T08:26:05;10.00;99.90
57218;DHT22;43078;52.972;6.482;2023-03-21T08:28:32;10.00;99.90
57218;DHT22;43078;52.972;6.482;2023-03-21T08:30:58;10.00;99.90
57218;DHT22;43078;52.972;6.482;2023-03-21T08:33:23;10.00;99.90
57218;DHT22;43078;52.972;6.482;2023-03-21T08:35:49;10.00;99.90
57218;DHT22;43078;52.972;6.482;2023-03-21T08:38:18;10.00;99.90
57218;DHT22;43078;52.972;6.482;2023-03-21T08:40:49;10.00;99.90
57218;DHT22;43078;52.972;6.482;2023-03-21T08:43:15;10.00;99.90
57218;DHT22;43078;52.972;6.482;2023-03-21T08:45:40;10.00;99.90
57218;DHT22;43078;52.972;6.482;2023-03-21T08:48:06;10.00;99.90
57218;DHT22;43078;52.972;6.482;2023-03-21T08:50:31;10.10;99.90
57218;DHT22;43078;52.972;6.482;2023-03-21T08:53:03;10.00;99.90
57218;DHT22;43078;52.972;6.482;2023-03-21T08:55:28;10.10;99.90
57218;DHT22;43078;52.972;6.482;2023-03-21T08:57:56;10.10;99.90
57218;DHT22;43078;52.972;6.482;2023-03-21T09:00:22;10.10;99.90
57218;DHT22;43078;52.972;6.482;2023-03-21T09:02:49;10.10;99.90
57218;DHT22;43078;52.972;6.482;2023-03-21T09:05:16;10.10;99.90
57218;DHT22;43078;52.972;6.482;2023-03-21T09:07:43;10.10;99.90
57218;DHT22;43078;52.972;6.482;2023-03-21T09:10:14;10.10;99.90
57218;DHT22;43078;52.972;6.482;2023-03-21T09:12:40;10.10;99.90
57218;DHT22;43078;52.972;6.482;2023-03-21T09:15:10;10.10;99.90
57218;DHT22;43078;52.972;6.482;2023-03-21T09:17:37;10.10;99.90
57218;DHT22;43078;52.972;6.482;2023-03-21T09:20:11;10.10;99.90
57218;DHT22;43078;52.972;6.482;2023-03-21T09:22:46;10.10;99.90
57218;DHT22;43078;52.972;6.482;2023-03-21T09:25:13;10.10;99.90
57218;DHT22;43078;52.972;6.482;2023-03-21T09:27:39;10.10;99.90
57218;DHT22;43078;52.972;6.482;2023-03-21T09:30:06;10.10;99.90
57218;DHT22;43078;52.972;6.482;2023-03-21T09:32:33;10.10;99.90
57218;DHT22;43078;52.972;6.482;2023-03-21T09:34:59;10.10;99.90
57218;DHT22;43078;52.972;6.482;2023-03-21T09:37:25;10.10;99.90
57218;DHT22;43078;52.972;6.482;2023-03-21T09:39:51;10.10;99.90
57218;DHT22;43078;52.972;6.482;2023-03-21T09:45:20;10.00;99.90
57218;DHT22;43078;52.972;6.482;2023-03-21T09:47:50;10.00;99.90
57218;DHT22;43078;52.972;6.482;2023-03-21T09:50:19;10.00;99.90
57218;DHT22;43078;52.972;6.482;2023-03-21T09:55:35;10.00;99.90
57218;DHT22;43078;52.972;6.482;2023-03-21T10:00:35;10.00;99.90
57218;DHT22;43078;52.972;6.482;2023-03-21T10:03:04;10.10;99.90
57218;DHT22;43078;52.972;6.482;2023-03-21T10:05:32;10.00;99.90
57218;DHT22;43078;52.972;6.482;2023-03-21T10:10:38;10.10;99.90
57218;DHT22;43078;52.972;6.482;2023-03-21T10:13:13;10.10;99.90
57218;DHT22;43078;52.972;6.482;2023-03-21T10:15:40;10.10;99.90
57218;DHT22;43078;52.972;6.482;2023-03-21T10:18:07;10.10;99.90
57218;DHT22;43078;52.972;6.482;2023-03-21T10:20:38;10.10;99.90
57218;DHT22;43078;52.972;6.482;2023-03-21T10:23:09;10.10;99.90
57218;DHT22;43078;52.972;6.482;2023-03-21T10:25:43;10.10;99.90
57218;DHT22;43078;52.972;6.482;2023-03-21T10:28:15;10.10;99.90
57218;DHT22;43078;52.972;6.482;2023-03-21T10:33:17;10.10;99.90
57218;DHT22;43078;52.972;6.482;2023-03-21T10:35:49;10.10;99.90
57218;DHT22;43078;52.972;6.482;2023-03-21T10:38:18;10.10;99.90
57218;DHT22;43078;52.972;6.482;2023-03-21T10:40:44;10.20;99.90
57218;DHT22;43078;52.972;6.482;2023-03-21T10:46:27;10.20;99.90
57218;DHT22;43078;52.972;6.482;2023-03-21T10:48:52;10.20;99.90
57218;DHT22;43078;52.972;6.482;2023-03-21T10:51:21;10.20;99.90
57218;DHT22;43078;52.972;6.482;2023-03-21T10:53:53;10.20;99.90
57218;DHT22;43078;52.972;6.482;2023-03-21T10:56:24;10.20;99.90
57218;DHT22;43078;52.972;6.482;2023-03-21T10:58:53;10.30;99.90
57218;DHT22;43078;52.972;6.482;2023-03-21T11:01:39;10.30;99.90
57218;DHT22;43078;52.972;6.482;2023-03-21T11:04:09;10.30;99.90
57218;DHT22;43078;52.972;6.482;2023-03-21T11:06:39;10.40;99.90
57218;DHT22;43078;52.972;6.482;2023-03-21T11:09:11;10.40;99.90
57218;DHT22;43078;52.972;6.482;2023-03-21T11:12:08;10.40;99.90
57218;DHT22;43078;52.972;6.482;2023-03-21T11:14:47;10.50;99.90
57218;DHT22;43078;52.972;6.482;2023-03-21T11:19:57;10.60;99.90
57218;DHT22;43078;52.972;6.482;2023-03-21T11:22:26;10.60;99.90
57218;DHT22;43078;52.972;6.482;2023-03-21T11:24:59;10.70;99.90
57218;DHT22;43078;52.972;6.482;2023-03-21T11:27:28;10.60;99.90
57218;DHT22;43078;52.972;6.482;2023-03-21T11:29:56;10.70;99.90
57218;DHT22;43078;52.972;6.482;2023-03-21T11:32:32;10.70;99.90
57218;DHT22;43078;52.972;6.482;2023-03-21T11:35:01;10.80;99.90
57218;DHT22;43078;52.972;6.482;2023-03-21T11:42:50;10.90;99.90
57218;DHT22;43078;52.972;6.482;2023-03-21T11:45:20;10.90;99.90
57218;DHT22;43078;52.972;6.482;2023-03-21T11:47:47;10.90;99.90
57218;DHT22;43078;52.972;6.482;2023-03-21T11:55:44;11.00;99.90
57218;DHT22;43078;52.972;6.482;2023-03-21T12:01:29;11.10;99.90
57218;DHT22;43078;52.972;6.482;2023-03-21T12:07:17;11.10;99.90
57218;DHT22;43078;52.972;6.482;2023-03-21T12:12:53;11.20;99.90
57218;DHT22;43078;52.972;6.482;2023-03-21T12:15:44;11.20;99.90
57218;DHT22;43078;52.972;6.482;2023-03-21T12:33:43;11.30;99.90
57218;DHT22;43078;52.972;6.482;2023-03-21T12:39:00;11.30;99.90
57218;DHT22;43078;52.972;6.482;2023-03-21T12:41:35;11.30;99.90
57218;DHT22;43078;52.972;6.482;2023-03-21T12:44:15;11.30;99.90
57218;DHT22;43078;52.972;6.482;2023-03-21T12:47:01;11.40;99.90
57218;DHT22;43078;52.972;6.482;2023-03-21T12:49:36;11.30;99.90
57218;DHT22;43078;52.972;6.482;2023-03-21T12:52:20;11.30;99.90
57218;DHT22;43078;52.972;6.482;2023-03-21T12:55:01;11.40;99.90
57218;DHT22;43078;52.972;6.482;2023-03-21T12:57:35;11.40;99.90
57218;DHT22;43078;52.972;6.482;2023-03-21T13:00:16;11.40;99.90
57218;DHT22;43078;52.972;6.482;2023-03-21T13:03:18;11.40;99.90
57218;DHT22;43078;52.972;6.482;2023-03-21T13:05:58;11.40;99.90
57218;DHT22;43078;52.972;6.482;2023-03-21T13:11:14;11.40;99.90
57218;DHT22;43078;52.972;6.482;2023-03-21T13:16:25;11.50;99.90
57218;DHT22;43078;52.972;6.482;2023-03-21T13:19:14;11.50;99.90
57218;DHT22;43078;52.972;6.482;2023-03-21T13:24:25;11.60;99.90
57218;DHT22;43078;52.972;6.482;2023-03-21T13:29:50;11.70;99.90
57218;DHT22;43078;52.972;6.482;2023-03-21T13:32:29;11.70;99.90
57218;DHT22;43078;52.972;6.482;2023-03-21T13:34:58;11.80;99.90
57218;DHT22;43078;52.972;6.482;2023-03-21T13:37:28;11.80;99.90
57218;DHT22;43078;52.972;6.482;2023-03-21T13:39:59;11.80;99.90
57218;DHT22;43078;52.972;6.482;2023-03-21T13:42:30;11.90;99.90
57218;DHT22;43078;52.972;6.482;2023-03-21T13:45:00;11.90;99.90
57218;DHT22;43078;52.972;6.482;2023-03-21T13:47:41;11.90;99.90
57218;DHT22;43078;52.972;6.482;2023-03-21T13:50:25;11.90;99.90
57218;DHT22;43078;52.972;6.482;2023-03-21T13:55:28;11.90;99.90
57218;DHT22;43078;52.972;6.482;2023-03-21T13:57:55;12.00;99.90
57218;DHT22;43078;52.972;6.482;2023-03-21T14:00:28;12.00;99.90
57218;DHT22;43078;52.972;6.482;2023-03-21T14:03:08;12.00;99.90
57218;DHT22;43078;52.972;6.482;2023-03-21T14:05:37;12.00;99.90
57218;DHT22;43078;52.972;6.482;2023-03-21T14:08:08;12.00;99.90
57218;DHT22;43078;52.972;6.482;2023-03-21T14:10:47;12.10;99.90
57218;DHT22;43078;52.972;6.482;2023-03-21T14:13:19;12.10;99.90
57218;DHT22;43078;52.972;6.482;2023-03-21T14:15:48;12.20;99.90
57218;DHT22;43078;52.972;6.482;2023-03-21T14:18:19;12.20;99.90
57218;DHT22;43078;52.972;6.482;2023-03-21T14:20:55;12.30;99.90
57218;DHT22;43078;52.972;6.482;2023-03-21T14:23:21;12.30;99.90
57218;DHT22;43078;52.972;6.482;2023-03-21T14:25:47;12.30;99.90
57218;DHT22;43078;52.972;6.482;2023-03-21T14:28:24;12.40;99.90
57218;DHT22;43078;52.972;6.482;2023-03-21T14:30:53;12.40;99.90
57218;DHT22;43078;52.972;6.482;2023-03-21T14:33:41;12.40;99.90
57218;DHT22;43078;52.972;6.482;2023-03-21T14:36:38;12.40;99.90
57218;DHT22;43078;52.972;6.482;2023-03-21T14:39:17;12.40;99.90
57218;DHT22;43078;52.972;6.482;2023-03-21T14:41:48;12.40;99.90
57218;DHT22;43078;52.972;6.482;2023-03-21T14:44:26;12.40;99.90
57218;DHT22;43078;52.972;6.482;2023-03-21T14:49:42;12.40;99.90
57218;DHT22;43078;52.972;6.482;2023-03-21T14:52:19;12.50;99.90
57218;DHT22;43078;52.972;6.482;2023-03-21T14:54:46;12.50;99.90
57218;DHT22;43078;52.972;6.482;2023-03-21T14:57:18;12.50;99.90
57218;DHT22;43078;52.972;6.482;2023-03-21T14:59:47;12.50;99.90
57218;DHT22;43078;52.972;6.482;2023-03-21T15:02:32;12.60;99.90
57218;DHT22;43078;52.972;6.482;2023-03-21T15:07:38;12.60;99.90
57218;DHT22;43078;52.972;6.482;2023-03-21T15:10:11;12.60;99.90
57218;DHT22;43078;52.972;6.482;2023-03-21T15:12:59;12.60;99.90
57218;DHT22;43078;52.972;6.482;2023-03-21T15:15:27;12.70;99.90
57218;DHT22;43078;52.972;6.482;2023-03-21T15:17:55;12.60;99.90
57218;DHT22;43078;52.972;6.482;2023-03-21T15:20:26;12.60;99.90
57218;DHT22;43078;52.972;6.482;2023-03-21T15:22:59;12.60;99.90
57218;DHT22;43078;52.972;6.482;2023-03-21T15:25:29;12.60;99.90
57218;DHT22;43078;52.972;6.482;2023-03-21T15:27:56;12.60;99.90
57218;DHT22;43078;52.972;6.482;2023-03-21T15:30:28;12.60;99.90
57218;DHT22;43078;52.972;6.482;2023-03-21T15:32:55;12.60;99.90
57218;DHT22;43078;52.972;6.482;2023-03-21T15:35:36;12.60;99.90
57218;DHT22;43078;52.972;6.482;2023-03-21T15:38:02;12.60;99.90
57218;DHT22;43078;52.972;6.482;2023-03-21T15:40:33;12.60;99.90
57218;DHT22;43078;52.972;6.482;2023-03-21T15:43:13;12.60;99.90
57218;DHT22;43078;52.972;6.482;2023-03-21T15:45:50;12.60;99.90
57218;DHT22;43078;52.972;6.482;2023-03-21T15:48:24;12.60;99.90
57218;DHT22;43078;52.972;6.482;2023-03-21T15:51:02;12.60;99.90
57218;DHT22;43078;52.972;6.482;2023-03-21T15:53:32;12.60;99.90
57218;DHT22;43078;52.972;6.482;2023-03-21T15:55:58;12.60;99.90
57218;DHT22;43078;52.972;6.482;2023-03-21T15:58:42;12.60;99.90
57218;DHT22;43078;52.972;6.482;2023-03-21T16:01:19;12.60;99.90
57218;DHT22;43078;52.972;6.482;2023-03-21T16:03:56;12.60;99.90
57218;DHT22;43078;52.972;6.482;2023-03-21T16:06:29;12.60;99.90
57218;DHT22;43078;52.972;6.482;2023-03-21T16:14:02;12.60;99.90
57218;DHT22;43078;52.972;6.482;2023-03-21T16:16:29;12.60;99.90
57218;DHT22;43078;52.972;6.482;2023-03-21T16:18:56;12.60;99.90
57218;DHT22;43078;52.972;6.482;2023-03-21T16:21:24;12.60;99.90
57218;DHT22;43078;52.972;6.482;2023-03-21T16:23:51;12.60;99.90
57218;DHT22;43078;52.972;6.482;2023-03-21T16:26:23;12.60;99.90
57218;DHT22;43078;52.972;6.482;2023-03-21T16:28:49;12.60;99.90
57218;DHT22;43078;52.972;6.482;2023-03-21T16:31:21;12.60;99.90
57218;DHT22;43078;52.972;6.482;2023-03-21T16:33:47;12.60;99.90
57218;DHT22;43078;52.972;6.482;2023-03-21T16:36:25;12.60;99.90
57218;DHT22;43078;52.972;6.482;2023-03-21T16:38:52;12.50;99.90
57218;DHT22;43078;52.972;6.482;2023-03-21T16:41:21;12.60;99.90
57218;DHT22;43078;52.972;6.482;2023-03-21T16:43:47;12.60;99.90
57218;DHT22;43078;52.972;6.482;2023-03-21T16:46:23;12.60;99.90
57218;DHT22;43078;52.972;6.482;2023-03-21T16:48:55;12.50;99.90
57218;DHT22;43078;52.972;6.482;2023-03-21T16:51:31;12.40;99.90
57218;DHT22;43078;52.972;6.482;2023-03-21T16:53:57;12.40;99.90
57218;DHT22;43078;52.972;6.482;2023-03-21T16:56:31;12.40;99.90
57218;DHT22;43078;52.972;6.482;2023-03-21T16:58:58;12.40;99.90
57218;DHT22;43078;52.972;6.482;2023-03-21T17:01:24;12.30;99.90
57218;DHT22;43078;52.972;6.482;2023-03-21T17:03:52;12.30;99.90
57218;DHT22;43078;52.972;6.482;2023-03-21T17:17:30;12.20;99.90
57218;DHT22;43078;52.972;6.482;2023-03-21T17:19:55;12.20;99.90
57218;DHT22;43078;52.972;6.482;2023-03-21T17:22:21;12.20;99.90
57218;DHT22;43078;52.972;6.482;2023-03-21T17:27:52;12.10;99.90
57218;DHT22;43078;52.972;6.482;2023-03-21T17:33:14;12.10;99.90
57218;DHT22;43078;52.972;6.482;2023-03-21T17:35:44;12.10;99.90
57218;DHT22;43078;52.972;6.482;2023-03-21T17:38:20;12.00;99.90
57218;DHT22;43078;52.972;6.482;2023-03-21T17:40:50;12.00;99.90
57218;DHT22;43078;52.972;6.482;2023-03-21T17:43:18;12.00;99.90
57218;DHT22;43078;52.972;6.482;2023-03-21T17:45:47;12.00;99.90
57218;DHT22;43078;52.972;6.482;2023-03-21T17:48:13;11.90;99.90
57218;DHT22;43078;52.972;6.482;2023-03-21T17:50:39;11.90;99.90
57218;DHT22;43078;52.972;6.482;2023-03-21T17:53:06;11.90;99.90
57218;DHT22;43078;52.972;6.482;2023-03-21T17:55:33;11.90;99.90
57218;DHT22;43078;52.972;6.482;2023-03-21T17:57:59;11.90;99.90
57218;DHT22;43078;52.972;6.482;2023-03-21T18:00:27;11.80;99.90
57218;DHT22;43078;52.972;6.482;2023-03-21T18:02:53;11.80;99.90
57218;DHT22;43078;52.972;6.482;2023-03-21T18:05:20;11.80;99.90
57218;DHT22;43078;52.972;6.482;2023-03-21T18:07:47;11.70;99.90
57218;DHT22;43078;52.972;6.482;2023-03-21T18:10:15;11.70;99.90